Time;durP1;ratioP1;P1;durP2;ratioP2;P2;SDS_P1;SDS_P2;PMS_P1;PMS_P2;Temp;Humidity;BMP_temperature;BMP_pressure;BME280_temperature;BME280_humidity;BME280_pressure;Samples;Min_cycle;Max_cycle;Signal;HPM_P1;HPM_P2
2023/09/10 00:00:18;;;;;;;12.35;11.05;;;;;;;;;;5034443;28;20055;-70
2023/09/10 00:02:44;;;;;;;12.82;11.15;;;;;;;;;;5044089;28;20051;-70
2023/09/10 00:05:09;;;;;;;12.13;10.82;;;;;;;;;;5035540;28;20055;-71
2023/09/10 00:07:35;;;;;;;18.63;11.20;;;;;;;;;;5021278;28;20111;-70
2023/09/10 00:10:00;;;;;;;13.52;11.35;;;;;;;;;;5036235;28;20541;-69
2023/09/10 00:12:26;;;;;;;14.32;11.88;;;;;;;;;;5031484;28;20049;-70
2023/09/10 00:14:51;;;;;;;14.90;11.55;;;;;;;;;;5039560;28;20044;-70
2023/09/10 00:17:16;;;;;;;14.32;11.98;;;;;;;;;;5031433;28;20041;-69
2023/09/10 00:19:42;;;;;;;18.45;13.23;;;;;;;;;;5024172;28;20060;-69
2023/09/10 00:22:07;;;;;;;14.05;11.95;;;;;;;;;;5024985;28;20071;-70
2023/09/10 00:24:33;;;;;;;15.02;11.20;;;;;;;;;;5021227;28;20069;-70
2023/09/10 00:26:58;;;;;;;14.55;11.77;;;;;;;;;;5021018;28;20045;-70
2023/09/10 00:29:23;;;;;;;15.90;11.50;;;;;;;;;;5035313;28;20045;-70
2023/09/10 00:31:49;;;;;;;14.45;11.48;;;;;;;;;;5035639;28;20128;-70
2023/09/10 00:34:14;;;;;;;16.83;11.43;;;;;;;;;;5020846;28;20049;-70
2023/09/10 00:36:40;;;;;;;13.23;11.10;;;;;;;;;;5019573;28;20053;-70
2023/09/10 00:39:06;;;;;;;13.60;11.38;;;;;;;;;;5039631;28;20132;-71
2023/09/10 00:41:32;;;;;;;13.88;11.13;;;;;;;;;;5024240;28;20056;-70
2023/09/10 00:43:58;;;;;;;15.20;10.60;;;;;;;;;;5039714;28;20056;-70
2023/09/10 00:46:23;;;;;;;14.45;10.27;;;;;;;;;;5020864;28;20057;-70
2023/09/10 00:48:49;;;;;;;14.73;11.50;;;;;;;;;;5036147;28;20049;-70
2023/09/10 00:51:15;;;;;;;12.00;10.38;;;;;;;;;;5035267;28;20124;-70
2023/09/10 00:53:41;;;;;;;13.23;10.25;;;;;;;;;;5046318;28;20405;-70
2023/09/10 00:56:07;;;;;;;13.95;10.88;;;;;;;;;;5034839;28;20190;-70
2023/09/10 00:58:33;;;;;;;14.93;10.40;;;;;;;;;;5037362;28;20132;-69
2023/09/10 01:00:59;;;;;;;12.73;10.77;;;;;;;;;;5039331;28;20128;-70
2023/09/10 01:03:26;;;;;;;13.35;10.80;;;;;;;;;;5029316;28;20190;-70
2023/09/10 01:05:52;;;;;;;14.20;11.25;;;;;;;;;;5038710;28;20524;-70
2023/09/10 01:08:17;;;;;;;13.77;10.75;;;;;;;;;;5035546;28;20081;-70
2023/09/10 01:10:52;;;;;;;14.07;11.27;;;;;;;;;;5039245;28;20501;-70
2023/09/10 01:13:42;;;;;;;14.38;10.98;;;;;;;;;;5034458;28;20040;-70
2023/09/10 01:16:16;;;;;;;14.40;10.93;;;;;;;;;;5004349;28;20103;-69
2023/09/10 01:18:55;;;;;;;13.52;11.27;;;;;;;;;;5027350;28;20037;-70
2023/09/10 01:21:36;;;;;;;18.58;13.07;;;;;;;;;;5035859;28;20049;-69
2023/09/10 01:24:05;;;;;;;23.30;15.13;;;;;;;;;;5034849;28;20041;-70
2023/09/10 01:26:30;;;;;;;20.90;15.65;;;;;;;;;;5019937;28;20847;-70
2023/09/10 01:28:55;;;;;;;23.35;15.65;;;;;;;;;;5037579;28;20053;-70
2023/09/10 01:31:21;;;;;;;18.08;14.30;;;;;;;;;;5021101;28;20140;-70
2023/09/10 01:33:52;;;;;;;17.42;13.75;;;;;;;;;;5032512;28;20111;-70
2023/09/10 01:36:40;;;;;;;17.03;13.03;;;;;;;;;;5036761;28;20147;-70
2023/09/10 01:39:25;;;;;;;17.08;13.65;;;;;;;;;;5034872;28;20124;-69
2023/09/10 01:41:51;;;;;;;15.90;12.93;;;;;;;;;;5036952;28;20053;-70
2023/09/10 01:44:18;;;;;;;16.92;13.02;;;;;;;;;;5035112;28;20053;-69
2023/09/10 01:46:45;;;;;;;15.15;12.48;;;;;;;;;;5037759;28;20048;-72
2023/09/10 01:49:10;;;;;;;17.40;12.73;;;;;;;;;;5031645;28;20049;-70
2023/09/10 01:51:36;;;;;;;18.30;13.55;;;;;;;;;;5033936;28;20064;-70
2023/09/10 01:54:02;;;;;;;17.23;12.70;;;;;;;;;;5034554;28;20052;-70
2023/09/10 01:56:27;;;;;;;18.45;12.95;;;;;;;;;;5034959;28;20060;-69
2023/09/10 01:58:52;;;;;;;14.63;12.43;;;;;;;;;;5024442;28;20045;-69
2023/09/10 02:01:18;;;;;;;19.05;13.02;;;;;;;;;;5023745;28;20048;-69
2023/09/10 02:03:43;;;;;;;15.77;12.18;;;;;;;;;;5018279;28;20056;-69
2023/09/10 02:06:09;;;;;;;16.00;12.50;;;;;;;;;;5036725;28;20048;-69
2023/09/10 02:08:34;;;;;;;17.05;12.13;;;;;;;;;;5033905;28;20500;-69
2023/09/10 02:11:04;;;;;;;14.93;11.75;;;;;;;;;;5034446;28;20045;-70
2023/09/10 02:13:30;;;;;;;17.45;12.13;;;;;;;;;;5018489;28;20054;-69
2023/09/10 02:15:55;;;;;;;17.48;12.60;;;;;;;;;;5033547;28;20521;-69
2023/09/10 02:18:22;;;;;;;15.85;12.07;;;;;;;;;;5036200;28;20059;-69
2023/09/10 02:20:47;;;;;;;20.55;12.07;;;;;;;;;;5024977;28;20342;-70
2023/09/10 02:23:13;;;;;;;14.55;11.65;;;;;;;;;;5034057;28;20609;-69
2023/09/10 02:31:08;;;;;;;17.50;13.52;;;;;;;;;;5425590;23;20065;-70
2023/09/10 02:33:34;;;;;;;20.73;13.88;;;;;;;;;;4998101;28;20050;-70
2023/09/10 02:36:00;;;;;;;18.05;14.02;;;;;;;;;;4999401;28;20042;-70
2023/09/10 02:38:27;;;;;;;22.98;16.33;;;;;;;;;;4990718;28;20797;-70
2023/09/10 02:40:54;;;;;;;26.77;17.90;;;;;;;;;;4971386;28;20074;-71
2023/09/10 02:43:19;;;;;;;19.85;16.02;;;;;;;;;;4991263;28;20111;-71
2023/09/10 02:45:45;;;;;;;23.75;15.80;;;;;;;;;;4978064;28;20073;-71
2023/09/10 02:48:10;;;;;;;22.50;15.77;;;;;;;;;;4978122;28;20042;-71
2023/09/10 02:50:35;;;;;;;23.77;17.52;;;;;;;;;;4977951;28;20829;-70
2023/09/10 02:53:01;;;;;;;22.58;16.35;;;;;;;;;;4945747;28;20046;-70
2023/09/10 02:55:26;;;;;;;18.83;15.27;;;;;;;;;;4976446;28;20050;-71
2023/09/10 02:57:52;;;;;;;18.85;14.73;;;;;;;;;;4962037;28;20042;-70
2023/09/10 03:00:22;;;;;;;18.65;14.50;;;;;;;;;;4982868;28;20054;-71
2023/09/10 03:02:57;;;;;;;16.50;13.77;;;;;;;;;;4988121;28;20510;-71
2023/09/10 03:05:23;;;;;;;20.40;14.57;;;;;;;;;;4979835;28;20042;-71
2023/09/10 03:07:52;;;;;;;20.80;16.08;;;;;;;;;;4996750;28;20049;-70
2023/09/10 03:10:18;;;;;;;25.20;17.17;;;;;;;;;;4980547;28;20085;-71
2023/09/10 03:12:44;;;;;;;19.83;15.32;;;;;;;;;;4981083;28;20149;-70
2023/09/10 03:15:10;;;;;;;21.10;14.77;;;;;;;;;;4996862;28;20133;-71
2023/09/10 03:17:36;;;;;;;17.02;14.60;;;;;;;;;;4979653;28;20145;-71
2023/09/10 03:20:04;;;;;;;18.48;13.65;;;;;;;;;;4980575;28;20096;-70
2023/09/10 03:22:29;;;;;;;18.60;13.68;;;;;;;;;;4996083;28;20065;-71
2023/09/10 03:24:57;;;;;;;17.75;13.45;;;;;;;;;;4997703;28;20127;-70
2023/09/10 03:27:23;;;;;;;16.98;13.02;;;;;;;;;;4996144;28;20054;-71
2023/09/10 03:29:48;;;;;;;17.23;13.45;;;;;;;;;;4980218;28;20046;-71
2023/09/10 03:32:13;;;;;;;16.38;12.38;;;;;;;;;;4996680;28;20038;-70
2023/09/10 03:34:42;;;;;;;15.88;13.00;;;;;;;;;;4996873;28;20081;-70
2023/09/10 03:37:07;;;;;;;16.00;13.25;;;;;;;;;;4979748;28;20542;-70
2023/09/10 03:39:34;;;;;;;15.82;12.20;;;;;;;;;;4995959;28;20383;-71
2023/09/10 03:42:00;;;;;;;15.93;12.55;;;;;;;;;;4998785;28;20041;-70
2023/09/10 03:44:25;;;;;;;15.55;12.70;;;;;;;;;;5001053;28;20096;-71
2023/09/10 03:46:52;;;;;;;19.48;14.02;;;;;;;;;;4982883;28;20537;-70
2023/09/10 03:49:19;;;;;;;15.35;12.63;;;;;;;;;;4999818;28;20450;-70
2023/09/10 03:51:46;;;;;;;16.60;13.30;;;;;;;;;;4994309;28;20045;-71
2023/09/10 03:54:12;;;;;;;15.55;12.45;;;;;;;;;;4998883;28;20510;-71
2023/09/10 03:56:39;;;;;;;15.85;13.07;;;;;;;;;;4981591;28;20494;-70
2023/09/10 03:59:08;;;;;;;17.85;13.38;;;;;;;;;;4984796;28;20037;-70
2023/09/10 04:01:35;;;;;;;16.42;13.02;;;;;;;;;;5000829;28;20077;-70
2023/09/10 04:04:01;;;;;;;15.85;12.82;;;;;;;;;;5000242;28;20038;-70
2023/09/10 04:06:27;;;;;;;16.02;13.02;;;;;;;;;;4999229;28;20045;-70
2023/09/10 04:08:53;;;;;;;16.83;13.60;;;;;;;;;;4983024;28;20057;-70
2023/09/10 04:11:18;;;;;;;16.90;13.73;;;;;;;;;;4999566;28;20045;-70
2023/09/10 04:13:44;;;;;;;19.38;14.02;;;;;;;;;;4998616;28;20414;-70
2023/09/10 04:16:09;;;;;;;20.92;12.70;;;;;;;;;;4982946;28;20045;-70
2023/09/10 04:18:34;;;;;;;16.83;12.70;;;;;;;;;;4982426;28;20049;-70
2023/09/10 04:21:04;;;;;;;17.17;12.88;;;;;;;;;;4982586;28;20042;-70
2023/09/10 04:23:29;;;;;;;16.70;13.48;;;;;;;;;;4998473;28;20125;-71
2023/09/10 04:25:55;;;;;;;20.05;12.48;;;;;;;;;;5001334;28;20696;-71
2023/09/10 04:28:21;;;;;;;17.35;13.27;;;;;;;;;;4983720;28;20042;-70
2023/09/10 04:30:46;;;;;;;16.10;12.55;;;;;;;;;;4999005;28;20046;-71
2023/09/10 04:33:12;;;;;;;14.82;11.93;;;;;;;;;;4983726;28;20560;-70
2023/09/10 04:35:47;;;;;;;16.20;12.70;;;;;;;;;;4998368;28;20046;-70
2023/09/10 04:38:12;;;;;;;18.80;13.25;;;;;;;;;;4999752;28;20058;-70
2023/09/10 04:40:41;;;;;;;18.40;13.95;;;;;;;;;;5000865;28;20042;-70
2023/09/10 04:43:07;;;;;;;17.85;13.77;;;;;;;;;;4982105;28;20042;-70
2023/09/10 04:45:32;;;;;;;18.88;14.23;;;;;;;;;;4981269;28;20052;-70
2023/09/10 04:47:59;;;;;;;19.45;13.88;;;;;;;;;;4998579;28;20133;-70
2023/09/10 04:50:25;;;;;;;21.33;16.00;;;;;;;;;;4999608;28;20153;-70
2023/09/10 04:52:52;;;;;;;19.67;15.10;;;;;;;;;;4981815;28;20557;-70
2023/09/10 04:55:17;;;;;;;19.13;15.40;;;;;;;;;;4999326;28;20038;-71
2023/09/10 04:57:43;;;;;;;19.45;15.43;;;;;;;;;;4979689;28;20133;-70
2023/09/10 05:00:09;;;;;;;21.42;16.58;;;;;;;;;;4979750;28;20457;-70
2023/09/10 05:02:35;;;;;;;20.23;16.35;;;;;;;;;;4995612;28;20580;-70
2023/09/10 05:05:00;;;;;;;20.60;15.13;;;;;;;;;;4980514;28;20038;-70
2023/09/10 05:07:26;;;;;;;22.38;15.93;;;;;;;;;;4978812;28;20045;-70
2023/09/10 05:09:51;;;;;;;19.83;16.17;;;;;;;;;;4980433;28;20042;-71
2023/09/10 05:12:16;;;;;;;23.10;17.02;;;;;;;;;;4979285;28;20403;-71
2023/09/10 05:14:42;;;;;;;21.58;16.25;;;;;;;;;;4962647;28;20061;-70
2023/09/10 05:17:08;;;;;;;23.55;16.42;;;;;;;;;;4963423;28;20051;-70
2023/09/10 05:19:33;;;;;;;19.92;17.02;;;;;;;;;;4979440;28;20836;-70
2023/09/10 05:21:59;;;;;;;25.75;16.15;;;;;;;;;;4993792;28;20521;-71
2023/09/10 05:24:25;;;;;;;23.65;16.88;;;;;;;;;;4979211;28;20383;-70
2023/09/10 05:26:51;;;;;;;19.48;15.13;;;;;;;;;;4989906;28;20046;-70
2023/09/10 05:29:16;;;;;;;20.55;15.40;;;;;;;;;;4992455;28;20174;-70
2023/09/10 05:31:42;;;;;;;24.98;18.02;;;;;;;;;;4973578;28;20046;-70
2023/09/10 05:34:07;;;;;;;26.77;17.38;;;;;;;;;;5000067;28;20070;-70
2023/09/10 05:36:34;;;;;;;18.90;16.15;;;;;;;;;;5013735;28;20052;-70
2023/09/10 05:39:00;;;;;;;18.25;13.98;;;;;;;;;;5014836;28;20414;-70
2023/09/10 05:41:26;;;;;;;15.57;12.77;;;;;;;;;;4998989;28;20411;-71
2023/09/10 05:43:52;;;;;;;15.52;12.80;;;;;;;;;;4997868;28;20138;-70
2023/09/10 05:46:17;;;;;;;14.25;12.13;;;;;;;;;;4997982;28;20046;-71
2023/09/10 05:48:43;;;;;;;12.40;11.02;;;;;;;;;;4996653;28;20062;-71
2023/09/10 05:51:08;;;;;;;11.27;9.48;;;;;;;;;;4997021;28;20052;-70
2023/09/10 05:53:34;;;;;;;11.93;9.45;;;;;;;;;;4995395;28;20137;-71
2023/09/10 05:56:03;;;;;;;13.52;8.95;;;;;;;;;;4995793;28;20041;-71
2023/09/10 05:58:28;;;;;;;11.00;8.30;;;;;;;;;;4996563;28;20046;-71
2023/09/10 06:00:54;;;;;;;9.32;8.32;;;;;;;;;;5013769;28;20048;-71
2023/09/10 06:03:19;;;;;;;9.38;7.80;;;;;;;;;;4997778;28;20093;-70
2023/09/10 06:05:45;;;;;;;11.45;8.82;;;;;;;;;;5012469;28;20049;-71
2023/09/10 06:08:11;;;;;;;10.85;8.05;;;;;;;;;;4998120;28;20056;-71
2023/09/10 06:10:36;;;;;;;11.85;7.88;;;;;;;;;;4997160;28;20053;-71
2023/09/10 06:13:02;;;;;;;8.65;7.35;;;;;;;;;;5014828;28;20093;-71
2023/09/10 06:15:27;;;;;;;8.57;7.70;;;;;;;;;;5013875;28;20044;-70
2023/09/10 06:17:53;;;;;;;8.02;7.13;;;;;;;;;;4997666;28;20045;-71
2023/09/10 06:20:18;;;;;;;9.77;7.75;;;;;;;;;;4996714;28;20155;-71
2023/09/10 06:22:44;;;;;;;8.90;8.07;;;;;;;;;;4999219;28;20370;-71
2023/09/10 06:25:09;;;;;;;8.93;7.82;;;;;;;;;;4997642;28;20041;-71
2023/09/10 06:27:35;;;;;;;10.63;7.70;;;;;;;;;;4996952;28;20037;-71
2023/09/10 06:30:01;;;;;;;8.52;7.47;;;;;;;;;;4997214;28;20173;-70
2023/09/10 06:32:26;;;;;;;9.13;8.15;;;;;;;;;;4980531;28;20402;-71
2023/09/10 06:34:52;;;;;;;10.38;7.88;;;;;;;;;;4980722;28;20360;-71
2023/09/10 06:37:17;;;;;;;9.90;8.43;;;;;;;;;;4996768;28;20073;-70
2023/09/10 06:39:44;;;;;;;9.57;8.60;;;;;;;;;;4996488;28;20123;-71
2023/09/10 06:42:11;;;;;;;10.20;9.18;;;;;;;;;;4997525;28;20038;-71
2023/09/10 06:44:43;;;;;;;12.52;9.95;;;;;;;;;;4997089;28;20065;-70
2023/09/10 06:47:09;;;;;;;18.02;13.65;;;;;;;;;;4999157;28;20034;-70
2023/09/10 06:49:35;;;;;;;13.52;10.98;;;;;;;;;;4997938;28;20103;-70
2023/09/10 06:52:01;;;;;;;14.57;10.00;;;;;;;;;;4997327;28;20045;-70
2023/09/10 06:54:26;;;;;;;10.95;9.80;;;;;;;;;;4998562;28;20061;-70
2023/09/10 06:56:51;;;;;;;10.43;9.27;;;;;;;;;;5013923;28;20092;-70
2023/09/10 06:59:17;;;;;;;11.40;9.85;;;;;;;;;;4998917;28;20046;-71
2023/09/10 07:01:44;;;;;;;11.75;9.23;;;;;;;;;;4996911;28;20124;-71
2023/09/10 07:04:24;;;;;;;10.48;9.23;;;;;;;;;;4993198;28;20050;-71
2023/09/10 07:06:51;;;;;;;9.20;8.18;;;;;;;;;;4997571;28;20046;-71
2023/09/10 07:09:21;;;;;;;9.57;8.40;;;;;;;;;;4996904;28;20046;-71
2023/09/10 07:11:47;;;;;;;11.65;9.13;;;;;;;;;;4997121;28;20054;-71
2023/09/10 07:14:12;;;;;;;8.90;8.00;;;;;;;;;;4997530;28;20532;-71
2023/09/10 07:16:38;;;;;;;9.10;7.68;;;;;;;;;;4997190;28;20053;-71
2023/09/10 07:19:03;;;;;;;9.25;7.88;;;;;;;;;;4997236;28;20037;-71
2023/09/10 07:21:29;;;;;;;9.43;8.52;;;;;;;;;;4996657;28;20073;-71
2023/09/10 07:23:54;;;;;;;8.45;7.28;;;;;;;;;;4998768;28;20048;-71
2023/09/10 07:26:20;;;;;;;8.13;7.32;;;;;;;;;;4999740;28;20049;-71
2023/09/10 07:28:45;;;;;;;15.13;7.60;;;;;;;;;;4999058;28;20240;-71
2023/09/10 07:31:10;;;;;;;8.00;7.20;;;;;;;;;;4998686;28;20038;-73
2023/09/10 07:33:36;;;;;;;8.10;7.30;;;;;;;;;;4997070;28;20050;-72
2023/09/10 07:36:01;;;;;;;9.50;6.32;;;;;;;;;;4999173;28;20402;-71
2023/09/10 07:38:27;;;;;;;8.13;7.32;;;;;;;;;;4999627;28;20847;-72
2023/09/10 07:40:52;;;;;;;8.40;7.18;;;;;;;;;;4999957;28;20115;-72
2023/09/10 07:43:18;;;;;;;7.80;7.00;;;;;;;;;;4999731;28;20046;-72
2023/09/10 07:45:45;;;;;;;8.35;7.28;;;;;;;;;;4998500;28;20085;-71
2023/09/10 07:48:11;;;;;;;7.80;7.00;;;;;;;;;;5010649;28;20058;-71
2023/09/10 07:50:37;;;;;;;8.25;7.32;;;;;;;;;;4998633;28;20037;-72
2023/09/10 07:53:03;;;;;;;8.18;7.03;;;;;;;;;;4998819;28;20104;-71
2023/09/10 07:55:28;;;;;;;7.32;6.63;;;;;;;;;;4998247;28;20056;-72
2023/09/10 07:57:54;;;;;;;9.63;7.15;;;;;;;;;;4999372;28;20085;-72
2023/09/10 08:00:19;;;;;;;8.13;7.28;;;;;;;;;;4998551;28;20041;-71
2023/09/10 08:02:45;;;;;;;6.70;6.00;;;;;;;;;;4998400;28;20066;-72
2023/09/10 08:05:11;;;;;;;7.15;6.45;;;;;;;;;;4997471;28;20041;-72
2023/09/10 08:07:36;;;;;;;6.72;5.95;;;;;;;;;;4998639;28;20453;-72
2023/09/10 08:10:02;;;;;;;7.63;6.90;;;;;;;;;;4999306;28;20052;-70
2023/09/10 08:12:27;;;;;;;10.85;6.55;;;;;;;;;;4999242;28;20050;-71
2023/09/10 08:14:53;;;;;;;7.13;6.43;;;;;;;;;;4998644;28;20561;-72
2023/09/10 08:17:19;;;;;;;6.55;5.95;;;;;;;;;;4998463;28;20033;-71
2023/09/10 08:19:45;;;;;;;11.63;6.28;;;;;;;;;;4997845;28;20109;-72
2023/09/10 08:22:10;;;;;;;7.68;6.40;;;;;;;;;;4997912;28;20161;-72
2023/09/10 08:24:35;;;;;;;7.25;6.45;;;;;;;;;;4998634;28;20041;-71
2023/09/10 08:27:05;;;;;;;7.68;6.72;;;;;;;;;;5013088;28;20133;-72
2023/09/10 08:29:31;;;;;;;6.25;5.65;;;;;;;;;;4996697;28;20133;-71
2023/09/10 08:31:58;;;;;;;6.82;6.00;;;;;;;;;;4996574;28;20061;-72
2023/09/10 08:34:24;;;;;;;6.43;5.82;;;;;;;;;;4998100;28;20494;-71
2023/09/10 08:36:49;;;;;;;6.60;5.88;;;;;;;;;;4999114;28;20152;-71
2023/09/10 08:39:15;;;;;;;6.55;5.95;;;;;;;;;;4999380;28;20045;-71
2023/09/10 08:41:53;;;;;;;7.78;6.03;;;;;;;;;;4998545;28;20049;-71
2023/09/10 08:44:20;;;;;;;7.38;5.68;;;;;;;;;;4997475;28;20042;-71
2023/09/10 08:46:49;;;;;;;5.95;5.45;;;;;;;;;;4997395;28;20050;-71
2023/09/10 08:49:15;;;;;;;6.28;5.22;;;;;;;;;;4998088;28;20053;-71
2023/09/10 08:51:41;;;;;;;6.30;5.40;;;;;;;;;;4998235;28;20042;-71
2023/09/10 08:54:07;;;;;;;6.70;5.40;;;;;;;;;;4998920;28;20042;-71
2023/09/10 08:56:33;;;;;;;7.82;5.40;;;;;;;;;;4999320;28;20045;-71
2023/09/10 08:59:03;;;;;;;5.45;4.95;;;;;;;;;;4998340;28;20037;-71
2023/09/10 09:01:29;;;;;;;6.30;5.32;;;;;;;;;;4999908;28;20482;-72
2023/09/10 09:03:54;;;;;;;7.07;5.55;;;;;;;;;;4999211;28;20057;-70
2023/09/10 09:06:20;;;;;;;5.63;5.07;;;;;;;;;;4999176;28;20045;-70
2023/09/10 09:08:50;;;;;;;5.22;4.72;;;;;;;;;;4999607;28;20454;-72
2023/09/10 09:11:17;;;;;;;7.45;5.68;;;;;;;;;;4998031;28;20112;-70
2023/09/10 09:13:47;;;;;;;5.85;5.07;;;;;;;;;;4997441;28;20043;-71
2023/09/10 09:16:13;;;;;;;6.13;5.53;;;;;;;;;;4993138;28;20133;-71
2023/09/10 09:18:40;;;;;;;8.60;5.45;;;;;;;;;;4999281;28;20052;-71
2023/09/10 09:21:11;;;;;;;8.75;5.43;;;;;;;;;;4996642;28;20132;-71
2023/09/10 09:23:47;;;;;;;5.55;5.03;;;;;;;;;;4998153;28;20221;-71
2023/09/10 09:26:14;;;;;;;5.63;5.07;;;;;;;;;;4998171;28;20037;-72
2023/09/10 09:28:39;;;;;;;7.35;5.30;;;;;;;;;;4998411;28;20064;-70
2023/09/10 09:31:09;;;;;;;5.65;5.07;;;;;;;;;;4997287;28;20045;-71
2023/09/10 09:33:36;;;;;;;5.60;5.10;;;;;;;;;;4998123;28;20459;-72
2023/09/10 09:36:08;;;;;;;9.43;5.57;;;;;;;;;;4997960;28;20206;-70
2023/09/10 09:38:34;;;;;;;5.18;4.75;;;;;;;;;;4996884;28;20084;-70
2023/09/10 09:41:04;;;;;;;5.32;4.82;;;;;;;;;;4993880;28;20132;-73
2023/09/10 09:43:32;;;;;;;5.75;5.15;;;;;;;;;;4992035;28;20042;-74
2023/09/10 09:45:57;;;;;;;6.72;4.95;;;;;;;;;;4992267;28;20045;-71
2023/09/10 09:48:23;;;;;;;5.65;5.10;;;;;;;;;;4994262;28;20454;-71
2023/09/10 09:50:49;;;;;;;5.57;4.82;;;;;;;;;;4991044;28;20756;-71
2023/09/10 09:53:15;;;;;;;5.05;4.57;;;;;;;;;;4998310;28;20050;-71
2023/09/10 09:55:44;;;;;;;4.85;4.40;;;;;;;;;;5013373;28;20524;-70
2023/09/10 09:58:10;;;;;;;5.82;5.30;;;;;;;;;;4999944;28;20081;-72
2023/09/10 10:00:37;;;;;;;5.93;4.72;;;;;;;;;;4999722;28;20520;-72
2023/09/10 10:03:04;;;;;;;6.03;5.07;;;;;;;;;;5000374;28;20038;-71
2023/09/10 10:05:31;;;;;;;5.60;4.72;;;;;;;;;;4999232;28;20061;-72
2023/09/10 10:07:56;;;;;;;4.60;4.20;;;;;;;;;;5014671;28;20068;-71
2023/09/10 10:10:21;;;;;;;5.85;4.40;;;;;;;;;;4998753;28;20041;-71
2023/09/10 10:12:48;;;;;;;5.30;4.80;;;;;;;;;;4994468;28;20604;-71
2023/09/10 10:15:14;;;;;;;5.45;4.45;;;;;;;;;;5011079;28;20095;-71
2023/09/10 10:17:42;;;;;;;8.32;4.45;;;;;;;;;;4995457;28;20041;-71
2023/09/10 10:20:08;;;;;;;5.28;4.20;;;;;;;;;;4996050;28;20061;-72
2023/09/10 10:22:34;;;;;;;4.97;4.50;;;;;;;;;;4995806;28;20049;-71
2023/09/10 10:25:00;;;;;;;4.80;4.03;;;;;;;;;;4996074;28;20049;-72
2023/09/10 10:27:27;;;;;;;3.97;3.53;;;;;;;;;;4997341;28;20046;-71
2023/09/10 10:29:53;;;;;;;4.82;4.20;;;;;;;;;;4995648;28;20708;-73
2023/09/10 10:32:27;;;;;;;4.40;4.00;;;;;;;;;;4996616;28;20053;-72
2023/09/10 10:34:58;;;;;;;6.28;5.05;;;;;;;;;;4996147;28;20050;-71
2023/09/10 10:37:34;;;;;;;4.28;3.88;;;;;;;;;;4995700;28;20057;-72
2023/09/10 10:40:19;;;;;;;5.45;4.95;;;;;;;;;;4993349;28;20133;-71
2023/09/10 10:43:01;;;;;;;4.80;4.32;;;;;;;;;;4996568;28;20054;-72
2023/09/10 10:45:27;;;;;;;4.10;3.70;;;;;;;;;;4997452;28;20057;-74
2023/09/10 10:47:55;;;;;;;3.80;3.50;;;;;;;;;;4997562;28;20065;-70
2023/09/10 10:50:30;;;;;;;6.25;3.40;;;;;;;;;;5000817;28;20041;-71
2023/09/10 10:53:04;;;;;;;5.85;3.88;;;;;;;;;;4999101;28;20072;-74
2023/09/10 10:55:30;;;;;;;4.20;3.80;;;;;;;;;;4997378;28;20060;-72
2023/09/10 10:57:56;;;;;;;3.70;3.40;;;;;;;;;;4995826;28;20058;-72
2023/09/10 11:00:22;;;;;;;3.90;3.40;;;;;;;;;;4996699;28;20042;-73
2023/09/10 11:02:49;;;;;;;4.82;3.58;;;;;;;;;;4995278;28;20657;-74
2023/09/10 11:05:15;;;;;;;4.05;3.58;;;;;;;;;;4996801;28;20073;-74
2023/09/10 11:07:40;;;;;;;4.75;4.32;;;;;;;;;;4996429;28;22021;-75
2023/09/10 11:10:24;;;;;;;6.28;3.95;;;;;;;;;;4997408;28;20050;-72
2023/09/10 11:13:04;;;;;;;3.85;3.55;;;;;;;;;;4999654;28;20077;-74
2023/09/10 11:15:29;;;;;;;5.30;4.10;;;;;;;;;;4999325;28;20399;-73
2023/09/10 11:18:14;;;;;;;4.45;4.05;;;;;;;;;;4997970;28;20563;-76
2023/09/10 11:20:50;;;;;;;3.72;3.30;;;;;;;;;;4982018;28;20671;-73
2023/09/10 11:23:16;;;;;;;4.22;3.83;;;;;;;;;;5000731;28;20132;-71
2023/09/10 11:25:41;;;;;;;6.90;3.50;;;;;;;;;;5015807;28;20179;-72
2023/09/10 11:28:41;;;;;;;3.03;2.72;;;;;;;;;;5000264;28;20049;-71
2023/09/10 11:31:45;;;;;;;3.85;3.33;;;;;;;;;;5000653;28;20107;-73
2023/09/10 11:34:31;;;;;;;3.80;3.40;;;;;;;;;;4983635;28;20081;-72
2023/09/10 11:37:02;;;;;;;4.55;3.58;;;;;;;;;;5000656;28;20386;-72
2023/09/10 11:39:29;;;;;;;4.20;3.30;;;;;;;;;;4999970;28;20172;-72
2023/09/10 11:41:56;;;;;;;3.78;3.25;;;;;;;;;;4999119;28;20049;-72
2023/09/10 11:44:22;;;;;;;3.70;3.40;;;;;;;;;;5000905;28;20080;-72
2023/09/10 11:46:51;;;;;;;3.72;3.28;;;;;;;;;;4995612;28;20119;-72
2023/09/10 11:49:17;;;;;;;3.83;3.25;;;;;;;;;;4999681;28;20493;-72
2023/09/10 11:51:45;;;;;;;3.47;3.10;;;;;;;;;;4995586;28;20057;-72
2023/09/10 11:54:18;;;;;;;4.40;3.65;;;;;;;;;;4999039;28;20054;-72
2023/09/10 11:56:47;;;;;;;3.13;2.83;;;;;;;;;;4998558;28;20616;-71
2023/09/10 11:59:16;;;;;;;3.20;2.90;;;;;;;;;;4999497;28;20068;-71
2023/09/10 12:01:42;;;;;;;3.75;3.20;;;;;;;;;;4998854;28;20550;-71
2023/09/10 12:04:07;;;;;;;4.38;3.50;;;;;;;;;;4998360;28;20042;-71
2023/09/10 12:06:33;;;;;;;4.93;2.90;;;;;;;;;;4998511;28;20213;-71
2023/09/10 12:08:58;;;;;;;5.15;2.90;;;;;;;;;;4998041;28;20064;-70
2023/09/10 12:11:25;;;;;;;3.65;3.13;;;;;;;;;;4998674;28;20526;-71
2023/09/10 12:13:51;;;;;;;6.32;3.10;;;;;;;;;;4997719;28;20080;-72
2023/09/10 12:16:17;;;;;;;3.25;3.00;;;;;;;;;;4997304;28;20050;-71
2023/09/10 12:18:43;;;;;;;4.15;3.40;;;;;;;;;;4998513;28;20046;-71
2023/09/10 12:21:14;;;;;;;4.13;3.30;;;;;;;;;;4996932;28;20057;-71
2023/09/10 12:23:40;;;;;;;3.38;3.08;;;;;;;;;;4997868;28;20422;-71
2023/09/10 12:26:07;;;;;;;3.83;3.45;;;;;;;;;;4997148;28;20057;-71
2023/09/10 12:28:33;;;;;;;8.00;2.95;;;;;;;;;;4998861;28;20062;-71
2023/09/10 12:30:59;;;;;;;4.50;3.45;;;;;;;;;;4997384;28;20504;-71
2023/09/10 12:33:25;;;;;;;3.42;3.13;;;;;;;;;;4998439;28;20160;-71
2023/09/10 12:35:53;;;;;;;4.25;3.40;;;;;;;;;;4997042;28;20046;-73
2023/09/10 12:38:18;;;;;;;5.38;3.33;;;;;;;;;;4998602;28;20426;-71
2023/09/10 12:40:45;;;;;;;5.82;3.47;;;;;;;;;;4998368;28;20048;-71
2023/09/10 12:43:10;;;;;;;3.85;3.03;;;;;;;;;;4998284;28;20046;-71
2023/09/10 12:45:36;;;;;;;4.03;3.03;;;;;;;;;;4996467;28;20061;-71
2023/09/10 12:48:02;;;;;;;6.13;3.33;;;;;;;;;;4997782;28;20050;-71
2023/09/10 12:50:28;;;;;;;3.25;2.95;;;;;;;;;;4998072;28;20632;-71
2023/09/10 12:52:55;;;;;;;6.65;3.10;;;;;;;;;;4995969;28;20053;-71
2023/09/10 12:55:22;;;;;;;4.65;3.63;;;;;;;;;;4997344;28;20046;-71
2023/09/10 12:57:56;;;;;;;3.65;3.35;;;;;;;;;;4995161;28;20046;-71
2023/09/10 13:00:23;;;;;;;7.25;3.42;;;;;;;;;;4997764;28;20510;-71
2023/09/10 13:02:48;;;;;;;5.10;3.55;;;;;;;;;;4998364;28;20049;-71
2023/09/10 13:05:16;;;;;;;4.47;3.40;;;;;;;;;;5012557;28;20050;-71
2023/09/10 13:07:43;;;;;;;4.03;3.38;;;;;;;;;;5012427;28;20093;-71
2023/09/10 13:10:12;;;;;;;4.32;3.17;;;;;;;;;;4996109;28;20505;-71
2023/09/10 13:12:38;;;;;;;4.00;3.63;;;;;;;;;;4998241;28;20046;-71
2023/09/10 13:15:04;;;;;;;4.63;3.38;;;;;;;;;;4997119;28;20080;-71
2023/09/10 13:17:30;;;;;;;4.68;3.60;;;;;;;;;;4997370;28;20065;-72
2023/09/10 13:19:59;;;;;;;7.30;3.50;;;;;;;;;;5011494;28;20053;-72
2023/09/10 13:22:24;;;;;;;4.65;4.18;;;;;;;;;;4996941;28;20053;-71
2023/09/10 13:24:50;;;;;;;4.90;3.83;;;;;;;;;;4996622;28;20096;-72
2023/09/10 13:27:15;;;;;;;4.05;3.70;;;;;;;;;;4996991;28;20069;-71
2023/09/10 13:29:41;;;;;;;4.28;3.88;;;;;;;;;;4994358;28;20050;-71
2023/09/10 13:32:07;;;;;;;4.10;3.70;;;;;;;;;;4995266;28;20102;-70
2023/09/10 13:34:33;;;;;;;4.28;3.33;;;;;;;;;;4996498;28;20046;-71
2023/09/10 13:36:58;;;;;;;5.85;3.88;;;;;;;;;;4995461;28;20445;-72
2023/09/10 13:39:26;;;;;;;5.35;4.03;;;;;;;;;;4993862;28;20526;-72
2023/09/10 13:41:51;;;;;;;4.22;3.90;;;;;;;;;;4994773;28;20038;-72
2023/09/10 13:44:17;;;;;;;4.88;4.00;;;;;;;;;;4996504;28;20046;-71
2023/09/10 13:46:42;;;;;;;4.20;3.80;;;;;;;;;;4996254;28;20527;-72
2023/09/10 13:49:10;;;;;;;7.53;4.22;;;;;;;;;;4996064;28;20050;-72
2023/09/10 13:51:36;;;;;;;5.70;4.22;;;;;;;;;;4995708;28;20060;-72
2023/09/10 13:54:01;;;;;;;8.15;4.03;;;;;;;;;;4996357;28;21212;-71
2023/09/10 13:56:27;;;;;;;5.90;4.20;;;;;;;;;;4995539;28;20049;-72
2023/09/10 13:58:52;;;;;;;5.05;4.20;;;;;;;;;;4996762;28;20053;-72
2023/09/10 14:01:18;;;;;;;4.20;3.80;;;;;;;;;;5012496;28;20052;-72
2023/09/10 14:03:44;;;;;;;4.22;3.83;;;;;;;;;;4994322;28;20136;-71
2023/09/10 14:06:09;;;;;;;5.30;3.80;;;;;;;;;;4995042;28;20037;-72
2023/09/10 14:08:35;;;;;;;5.30;3.65;;;;;;;;;;4995870;28;20399;-72
2023/09/10 14:11:01;;;;;;;5.10;4.13;;;;;;;;;;4995578;28;20061;-72
2023/09/10 14:13:26;;;;;;;3.40;3.10;;;;;;;;;;4996375;28;20133;-72
2023/09/10 14:15:52;;;;;;;4.55;3.28;;;;;;;;;;4992317;28;20107;-71
2023/09/10 14:18:17;;;;;;;8.95;3.40;;;;;;;;;;5010671;28;20042;-72
2023/09/10 14:20:42;;;;;;;4.57;3.40;;;;;;;;;;4995695;28;20037;-72
2023/09/10 14:23:08;;;;;;;4.07;3.10;;;;;;;;;;4995902;28;20148;-72
2023/09/10 14:25:33;;;;;;;4.78;3.38;;;;;;;;;;4995150;28;20211;-72
2023/09/10 14:27:59;;;;;;;5.05;4.05;;;;;;;;;;4994556;28;20053;-72
2023/09/10 14:30:24;;;;;;;4.05;3.30;;;;;;;;;;4996043;28;20057;-72
2023/09/10 14:32:50;;;;;;;3.65;3.35;;;;;;;;;;4996163;28;20172;-72
2023/09/10 14:35:15;;;;;;;4.60;3.25;;;;;;;;;;4994006;28;20498;-72